Bookmark and Share
Track history (hours):
 

MiSS Sylvia

More information available from US FCC via Universal Licensing System and Coast Guard Vessel Documentation Center.

Last reported at 2014-Apr-19 18:06 UTC. Time now 2014-Apr-20 05:44 UTC.
Position N 29°60' W 090°50'.

Length 20 m; draft 3.4 m.

Type: Towing. MMSI: 367366340.

NotesDate/timePositionNaut miles runAvg speedWind from/ knotsBaromVisibWave heightAir tempDewpointWater temp
2014-Apr-19 18:06N 29°60' W 090°50'3 1.5
2014-Apr-19 16:03N 30°00' W 090°47'0 0.0
2014-Apr-19 15:23N 30°00' W 090°47'2 2.3
2014-Apr-19 14:33N 30°01' W 090°44'6 2.4
2014-Apr-19 12:08N 30°02' W 090°38'2 2.6
2014-Apr-19 11:33N 30°02' W 090°36'3 2.5
2014-Apr-19 10:33N 30°03' W 090°33'3 2.4
2014-Apr-19 09:31N 30°03' W 090°30'1 0.2
2014-Apr-19 02:33N 30°03' W 090°32'2 2.2
2014-Apr-19 01:33N 30°03' W 090°34'4 3.2
2014-Apr-19 00:28N 30°03' W 090°30'2 2.1
2014-Apr-18 23:23N 30°01' W 090°29'0 0.0
2014-Apr-18 22:13N 30°02' W 090°29'1 0.4
2014-Apr-18 19:25N 30°03' W 090°29'0 0.1
2014-Apr-18 18:21N 30°02' W 090°29'4 5.6
2014-Apr-18 17:33N 30°03' W 090°34'19 0.5
2014-Apr-17 02:13N 30°07' W 090°55'16 1.7
2014-Apr-16 16:29N 30°02' W 090°37'2 2.5
2014-Apr-16 15:33N 30°03' W 090°35'0 0.4
2014-Apr-16 14:33N 30°03' W 090°34'3 2.5
2014-Apr-16 13:33N 30°03' W 090°31'3 2.6
2014-Apr-16 12:33N 30°02' W 090°28'1 0.8
2014-Apr-16 11:33N 30°03' W 090°29'0 0.0
2014-Apr-16 10:33N 30°03' W 090°29'3 3.2
2014-Apr-16 09:33N 29°60' W 090°27'4 3.6
2014-Apr-16 08:33N 29°58' W 090°24'4 3.7
2014-Apr-16 07:20N 29°56' W 090°19'0 0.2
2014-Apr-16 04:31N 29°56' W 090°19'6 5.9
2014-Apr-16 03:33N 29°59' W 090°24'4 4.1
2014-Apr-16 02:33N 30°01' W 090°29'1 1.3
2014-Apr-16 01:33N 30°03' W 090°28'1 1.3
2014-Apr-16 00:33N 30°01' W 090°29'0 0.0
2014-Apr-15 23:33N 30°01' W 090°29'0 0.4
2014-Apr-15 22:31N 30°02' W 090°28'2 1.8
2014-Apr-15 21:19N 30°03' W 090°30'  
2014-Apr-13 10:28N 30°00' W 090°47'2 2.6
2014-Apr-13 09:33N 30°01' W 090°44'2 2.3
2014-Apr-13 08:33N 30°02' W 090°42'2 2.4
2014-Apr-13 07:33N 30°03' W 090°40'3 2.7
2014-Apr-13 06:33N 30°02' W 090°37'2 2.0
2014-Apr-13 05:33N 30°03' W 090°35'3 2.6
2014-Apr-13 04:33N 30°03' W 090°32'2 2.2
2014-Apr-13 03:33N 30°03' W 090°29'2 1.6
2014-Apr-13 02:33N 30°01' W 090°29'0 0.1
2014-Apr-13 01:33N 30°01' W 090°29'0 0.1
2014-Apr-13 00:33N 30°01' W 090°29'0 0.0
2014-Apr-12 23:33N 30°01' W 090°29'2 2.3
2014-Apr-12 22:33N 30°03' W 090°30'1 1.0
2014-Apr-12 21:33N 30°03' W 090°29'2 1.6
2014-Apr-12 20:33N 30°01' W 090°29'1 1.2
2014-Apr-12 19:33N 30°03' W 090°28'3 3.1
2014-Apr-12 18:33N 30°03' W 090°32'0 0.0
2014-Apr-12 17:33N 30°03' W 090°32'2 2.1
2014-Apr-12 16:33N 30°03' W 090°29'1 0.4
2014-Apr-12 12:32N 30°02' W 090°29'0 0.0
2014-Apr-12 11:33N 30°02' W 090°29'0 0.0
2014-Apr-12 10:33N 30°02' W 090°29'0 0.0
2014-Apr-12 09:33N 30°02' W 090°29'1 0.5
2014-Apr-12 08:33N 30°01' W 090°29'1 0.8
2014-Apr-12 07:33N 30°02' W 090°29'1 0.6
2014-Apr-12 06:33N 30°03' W 090°28'0 0.0
2014-Apr-12 05:34N 30°03' W 090°28'4 3.8
2014-Apr-12 04:33N 30°03' W 090°33'6 6.4
2014-Apr-12 03:34N 30°03' W 090°40'8 8.2
2014-Apr-12 02:34N 29°59' W 090°49'11 1.5
2014-Apr-11 19:04N 30°02' W 090°37'2 4.8
2014-Apr-11 18:33N 30°03' W 090°34'5 0.8
2014-Apr-11 12:24N 30°01' W 090°29'0 0.0
2014-Apr-11 11:33N 30°01' W 090°29'3 3.3
2014-Apr-11 10:33N 30°03' W 090°32'7 7.1
2014-Apr-11 09:33N 30°03' W 090°40'8 7.4
2014-Apr-11 08:33N 29°60' W 090°48'14 0.7
2014-Apr-10 12:03N 30°08' W 091°02'6 1.3
2014-Apr-10 07:13N 30°06' W 090°55'3 2.5
2014-Apr-10 06:10N 30°04' W 090°53'3 2.0
2014-Apr-10 04:32N 30°01' W 090°50'3 2.9
2014-Apr-10 03:30N 29°59' W 090°49'2 1.6
2014-Apr-10 02:33N 29°60' W 090°48'2 1.4
2014-Apr-10 01:27N 30°01' W 090°46'2 2.3
2014-Apr-10 00:33N 30°01' W 090°44'3 2.8
2014-Apr-09 23:33N 30°02' W 090°41'3 2.6
2014-Apr-09 22:33N 30°02' W 090°38'2 1.8
2014-Apr-09 21:33N 30°03' W 090°36'3 3.1
2014-Apr-09 20:33N 30°03' W 090°32'  

Dump ship's entire track history

sailing weather and tide predictions

MiSS Sylvia — WDE5412 — position and weather